San Antonio (SAT/KSAT)

Map

Information

Location
San Antonio, TX
Local Time
18:24 / 6:24 pm
GMT Time
00:24 / 12:24 am
Gates
Unassigned
No FAA reported delays
METAR KSAT 222351Z 24005KT 10SM CLR 28/06 A2980 RMK AO2 SLP076 FU N-NE T02830061 10311 20256 55011
TAF KSAT 222320Z 2300/2406 25006KT P6SM SKC FM231700 19011KT P6SM FEW250
  • No charts available